Keyes, California
Current Conditions -  °F | °C
As of 12:53 AM on Friday 31 Oct 2014 (Local Time) from KMOD Reporting Station
Clear Clear  
Wind Chill: 60°   Ceiling: Unl
Heat Index: 60°   Visibility: 10mi
Dew Point: 50°   Wind: 3mph
Humidity: 69%   Direction: 330°NNW
Pressure: 29.88"   Gusts: NA
Location:  37.56°N, 120.92°W
Report Text: KMOD 310753Z AUTO 33003KT 10SM CLR 16/10 A2988 RMK AO2 SLP119 T01560100 402610094
Loading
Personal Weather Stations






























Interactive Weather Map
Tropical Storm Tracking
New forecast layout! Learn more

10-Day Weather Forecast

Advertisements
Track Severe Weather on mobile